sensor_id;sensor_type;location;lat;lon;timestamp;pressure;altitude;pressure_sealevel;temperature;humidity
55460;BME280;41326;45.302;-122.946;2023-10-13T00:01:08;100666.66;;;20.45;55.92
55460;BME280;41326;45.302;-122.946;2023-10-13T00:03:39;100665.63;;;20.47;56.21
55460;BME280;41326;45.302;-122.946;2023-10-13T00:06:09;100660.14;;;20.52;55.94
55460;BME280;41326;45.302;-122.946;2023-10-13T00:08:39;100656.48;;;20.52;55.92
55460;BME280;41326;45.302;-122.946;2023-10-13T00:11:11;100655.31;;;20.51;56.21
55460;BME280;41326;45.302;-122.946;2023-10-13T00:13:39;100653.43;;;20.53;56.71
55460;BME280;41326;45.302;-122.946;2023-10-13T00:16:10;100651.07;;;20.57;57.03
55460;BME280;41326;45.302;-122.946;2023-10-13T00:18:40;100644.01;;;20.59;56.62
55460;BME280;41326;45.302;-122.946;2023-10-13T00:21:10;100638.17;;;20.63;56.56
55460;BME280;41326;45.302;-122.946;2023-10-13T00:23:40;100634.77;;;20.68;56.87
55460;BME280;41326;45.302;-122.946;2023-10-13T00:26:10;100633.97;;;20.72;57.29
55460;BME280;41326;45.302;-122.946;2023-10-13T00:28:41;100636.12;;;20.73;57.98
55460;BME280;41326;45.302;-122.946;2023-10-13T00:31:11;100632.88;;;20.74;58.22
55460;BME280;41326;45.302;-122.946;2023-10-13T00:33:41;100627.67;;;20.77;58.94
55460;BME280;41326;45.302;-122.946;2023-10-13T00:36:12;100623.98;;;20.80;59.01
55460;BME280;41326;45.302;-122.946;2023-10-13T00:38:43;100620.37;;;20.83;58.82
55460;BME280;41326;45.302;-122.946;2023-10-13T00:41:12;100618.43;;;20.85;58.14
55460;BME280;41326;45.302;-122.946;2023-10-13T00:43:47;100620.80;;;20.84;58.05
55460;BME280;41326;45.302;-122.946;2023-10-13T00:46:13;100625.32;;;20.85;57.04
55460;BME280;41326;45.302;-122.946;2023-10-13T00:48:44;100623.61;;;20.86;56.50
55460;BME280;41326;45.302;-122.946;2023-10-13T00:51:14;100621.60;;;20.90;56.04
55460;BME280;41326;45.302;-122.946;2023-10-13T00:53:44;100616.04;;;20.91;55.63
55460;BME280;41326;45.302;-122.946;2023-10-13T00:56:15;100614.87;;;20.90;55.01
55460;BME280;41326;45.302;-122.946;2023-10-13T00:58:48;100612.49;;;20.90;54.54
55460;BME280;41326;45.302;-122.946;2023-10-13T01:01:15;100610.88;;;20.90;54.04
55460;BME280;41326;45.302;-122.946;2023-10-13T01:03:45;100606.05;;;20.88;53.68
55460;BME280;41326;45.302;-122.946;2023-10-13T01:06:16;100598.78;;;20.87;53.49
55460;BME280;41326;45.302;-122.946;2023-10-13T01:08:47;100601.08;;;20.85;52.81
55460;BME280;41326;45.302;-122.946;2023-10-13T01:11:15;100603.60;;;20.81;52.96
55460;BME280;41326;45.302;-122.946;2023-10-13T01:13:45;100602.80;;;20.76;52.99
55460;BME280;41326;45.302;-122.946;2023-10-13T01:16:17;100598.81;;;20.72;53.19
55460;BME280;41326;45.302;-122.946;2023-10-13T01:18:46;100594.56;;;20.66;53.19
55460;BME280;41326;45.302;-122.946;2023-10-13T01:21:16;100591.38;;;20.62;53.13
55460;BME280;41326;45.302;-122.946;2023-10-13T01:23:47;100587.61;;;20.59;53.50
55460;BME280;41326;45.302;-122.946;2023-10-13T01:26:17;100587.07;;;20.58;53.81
55460;BME280;41326;45.302;-122.946;2023-10-13T01:28:47;100587.60;;;20.56;54.31
55460;BME280;41326;45.302;-122.946;2023-10-13T01:31:18;100589.12;;;20.56;54.72
55460;BME280;41326;45.302;-122.946;2023-10-13T01:33:48;100589.15;;;20.54;54.70
55460;BME280;41326;45.302;-122.946;2023-10-13T01:36:18;100590.94;;;20.55;54.89
55460;BME280;41326;45.302;-122.946;2023-10-13T01:38:50;100589.91;;;20.55;54.73
55460;BME280;41326;45.302;-122.946;2023-10-13T01:41:19;100590.42;;;20.55;54.96
55460;BME280;41326;45.302;-122.946;2023-10-13T01:43:49;100583.90;;;20.51;54.65
55460;BME280;41326;45.302;-122.946;2023-10-13T01:46:19;100580.38;;;20.49;54.91
55460;BME280;41326;45.302;-122.946;2023-10-13T01:48:50;100577.11;;;20.47;54.96
55460;BME280;41326;45.302;-122.946;2023-10-13T01:51:20;100571.25;;;20.44;55.10
55460;BME280;41326;45.302;-122.946;2023-10-13T01:53:51;100569.54;;;20.43;54.95
55460;BME280;41326;45.302;-122.946;2023-10-13T01:56:21;100568.64;;;20.42;55.15
55460;BME280;41326;45.302;-122.946;2023-10-13T01:58:51;100563.65;;;20.39;55.12
55460;BME280;41326;45.302;-122.946;2023-10-13T02:01:21;100565.60;;;20.36;54.92
55460;BME280;41326;45.302;-122.946;2023-10-13T02:03:52;100569.69;;;20.31;55.23
55460;BME280;41326;45.302;-122.946;2023-10-13T02:06:21;100572.64;;;20.31;55.32
55460;BME280;41326;45.302;-122.946;2023-10-13T02:08:52;100570.91;;;20.30;55.79
55460;BME280;41326;45.302;-122.946;2023-10-13T02:11:22;100568.54;;;20.31;56.09
55460;BME280;41326;45.302;-122.946;2023-10-13T02:13:53;100566.62;;;20.34;56.19
55460;BME280;41326;45.302;-122.946;2023-10-13T02:16:23;100564.39;;;20.36;56.26
55460;BME280;41326;45.302;-122.946;2023-10-13T02:18:53;100562.99;;;20.41;56.24
55460;BME280;41326;45.302;-122.946;2023-10-13T02:21:23;100563.56;;;20.41;56.34
55460;BME280;41326;45.302;-122.946;2023-10-13T02:23:53;100564.18;;;20.44;56.29
55460;BME280;41326;45.302;-122.946;2023-10-13T02:26:23;100565.37;;;20.47;56.23
55460;BME280;41326;45.302;-122.946;2023-10-13T02:28:53;100567.37;;;20.49;56.26
55460;BME280;41326;45.302;-122.946;2023-10-13T02:31:23;100558.56;;;20.49;56.35
55460;BME280;41326;45.302;-122.946;2023-10-13T02:33:53;100554.16;;;20.48;56.46
55460;BME280;41326;45.302;-122.946;2023-10-13T02:36:24;100550.94;;;20.51;56.46
55460;BME280;41326;45.302;-122.946;2023-10-13T02:38:55;100547.72;;;20.52;56.50
55460;BME280;41326;45.302;-122.946;2023-10-13T02:41:25;100540.76;;;20.51;56.56
55460;BME280;41326;45.302;-122.946;2023-10-13T02:43:55;100536.66;;;20.51;56.54
55460;BME280;41326;45.302;-122.946;2023-10-13T02:46:25;100538.25;;;20.52;56.54
55460;BME280;41326;45.302;-122.946;2023-10-13T02:48:56;100534.25;;;20.52;56.61
55460;BME280;41326;45.302;-122.946;2023-10-13T02:51:26;100532.26;;;20.53;56.66
55460;BME280;41326;45.302;-122.946;2023-10-13T02:53:56;100531.29;;;20.53;56.70
55460;BME280;41326;45.302;-122.946;2023-10-13T02:56:26;100525.61;;;20.56;56.63
55460;BME280;41326;45.302;-122.946;2023-10-13T02:58:57;100526.16;;;20.55;56.65
55460;BME280;41326;45.302;-122.946;2023-10-13T03:01:26;100527.85;;;20.56;56.61
55460;BME280;41326;45.302;-122.946;2023-10-13T03:04:03;100524.73;;;20.56;56.52
55460;BME280;41326;45.302;-122.946;2023-10-13T03:06:28;100519.21;;;20.59;56.39
55460;BME280;41326;45.302;-122.946;2023-10-13T03:08:58;100518.33;;;20.58;56.40
55460;BME280;41326;45.302;-122.946;2023-10-13T03:11:28;100522.44;;;20.56;56.51
55460;BME280;41326;45.302;-122.946;2023-10-13T03:13:59;100524.98;;;20.55;56.57
55460;BME280;41326;45.302;-122.946;2023-10-13T03:16:28;100518.93;;;20.56;56.55
55460;BME280;41326;45.302;-122.946;2023-10-13T03:18:59;100519.70;;;20.56;56.56
55460;BME280;41326;45.302;-122.946;2023-10-13T03:22:36;100519.73;;;20.55;56.50
55460;BME280;41326;45.302;-122.946;2023-10-13T03:25:06;100518.33;;;20.56;56.44
55460;BME280;41326;45.302;-122.946;2023-10-13T03:27:36;100517.30;;;20.56;56.40
55460;BME280;41326;45.302;-122.946;2023-10-13T03:30:06;100518.43;;;20.55;56.45
55460;BME280;41326;45.302;-122.946;2023-10-13T03:32:36;100514.24;;;20.56;56.46
55460;BME280;41326;45.302;-122.946;2023-10-13T03:35:07;100513.40;;;20.57;56.36
55460;BME280;41326;45.302;-122.946;2023-10-13T03:37:38;100514.19;;;20.57;56.39
55460;BME280;41326;45.302;-122.946;2023-10-13T03:40:08;100516.50;;;20.56;56.42
55460;BME280;41326;45.302;-122.946;2023-10-13T03:42:37;100513.80;;;20.55;56.38
55460;BME280;41326;45.302;-122.946;2023-10-13T03:45:08;100513.20;;;20.56;56.27
55460;BME280;41326;45.302;-122.946;2023-10-13T03:47:38;100512.88;;;20.54;56.26
55460;BME280;41326;45.302;-122.946;2023-10-13T03:50:09;100514.98;;;20.56;56.23
55460;BME280;41326;45.302;-122.946;2023-10-13T03:52:39;100514.33;;;20.59;56.14
55460;BME280;41326;45.302;-122.946;2023-10-13T03:55:10;100518.09;;;20.59;56.09
55460;BME280;41326;45.302;-122.946;2023-10-13T03:57:40;100519.30;;;20.59;56.06
55460;BME280;41326;45.302;-122.946;2023-10-13T04:00:12;100518.73;;;20.60;56.01
55460;BME280;41326;45.302;-122.946;2023-10-13T04:02:40;100516.82;;;20.58;55.96
55460;BME280;41326;45.302;-122.946;2023-10-13T04:05:10;100516.57;;;20.56;55.88
55460;BME280;41326;45.302;-122.946;2023-10-13T04:07:50;100515.01;;;20.57;55.83
55460;BME280;41326;45.302;-122.946;2023-10-13T04:10:11;100515.51;;;20.55;55.84
55460;BME280;41326;45.302;-122.946;2023-10-13T04:12:40;100515.55;;;20.56;55.81
55460;BME280;41326;45.302;-122.946;2023-10-13T04:15:11;100513.52;;;20.56;55.76
55460;BME280;41326;45.302;-122.946;2023-10-13T04:17:41;100511.19;;;20.55;55.73
55460;BME280;41326;45.302;-122.946;2023-10-13T04:20:12;100513.96;;;20.57;55.70
55460;BME280;41326;45.302;-122.946;2023-10-13T04:22:42;100516.43;;;20.57;55.59
55460;BME280;41326;45.302;-122.946;2023-10-13T04:25:12;100513.45;;;20.57;55.49
55460;BME280;41326;45.302;-122.946;2023-10-13T04:27:42;100506.51;;;20.58;55.43
55460;BME280;41326;45.302;-122.946;2023-10-13T04:30:13;100499.29;;;20.56;55.45
55460;BME280;41326;45.302;-122.946;2023-10-13T04:32:46;100500.55;;;20.55;55.47
55460;BME280;41326;45.302;-122.946;2023-10-13T04:35:17;100497.93;;;20.56;55.51
55460;BME280;41326;45.302;-122.946;2023-10-13T04:37:47;100493.74;;;20.57;55.46
55460;BME280;41326;45.302;-122.946;2023-10-13T04:40:18;100492.15;;;20.56;55.43
55460;BME280;41326;45.302;-122.946;2023-10-13T04:42:47;100487.37;;;20.56;55.31
55460;BME280;41326;45.302;-122.946;2023-10-13T04:45:19;100486.14;;;20.57;55.12
55460;BME280;41326;45.302;-122.946;2023-10-13T04:47:48;100481.30;;;20.56;55.10
55460;BME280;41326;45.302;-122.946;2023-10-13T04:50:19;100477.90;;;20.55;55.10
55460;BME280;41326;45.302;-122.946;2023-10-13T04:52:50;100478.99;;;20.53;55.11
55460;BME280;41326;45.302;-122.946;2023-10-13T04:55:20;100480.16;;;20.54;55.05
55460;BME280;41326;45.302;-122.946;2023-10-13T04:57:50;100477.91;;;20.54;54.97
55460;BME280;41326;45.302;-122.946;2023-10-13T05:00:20;100475.96;;;20.54;54.92
55460;BME280;41326;45.302;-122.946;2023-10-13T05:02:52;100472.26;;;20.53;54.81
55460;BME280;41326;45.302;-122.946;2023-10-13T05:05:21;100471.69;;;20.51;54.69
55460;BME280;41326;45.302;-122.946;2023-10-13T05:07:51;100465.44;;;20.50;54.70
55460;BME280;41326;45.302;-122.946;2023-10-13T05:10:22;100461.49;;;20.48;54.67
55460;BME280;41326;45.302;-122.946;2023-10-13T05:12:51;100463.11;;;20.48;54.65
55460;BME280;41326;45.302;-122.946;2023-10-13T05:15:22;100460.17;;;20.47;54.58
55460;BME280;41326;45.302;-122.946;2023-10-13T05:17:52;100452.37;;;20.46;54.49
55460;BME280;41326;45.302;-122.946;2023-10-13T05:20:22;100450.75;;;20.45;54.47
55460;BME280;41326;45.302;-122.946;2023-10-13T05:22:52;100450.20;;;20.44;54.41
55460;BME280;41326;45.302;-122.946;2023-10-13T05:25:22;100443.93;;;20.44;54.27
55460;BME280;41326;45.302;-122.946;2023-10-13T05:27:53;100442.22;;;20.42;54.33
55460;BME280;41326;45.302;-122.946;2023-10-13T05:30:23;100445.08;;;20.40;54.32
55460;BME280;41326;45.302;-122.946;2023-10-13T05:32:53;100444.22;;;20.37;54.32
55460;BME280;41326;45.302;-122.946;2023-10-13T05:35:26;100437.05;;;20.39;54.21
55460;BME280;41326;45.302;-122.946;2023-10-13T05:37:54;100445.92;;;20.39;54.18
55460;BME280;41326;45.302;-122.946;2023-10-13T05:40:25;100443.52;;;20.37;54.32
55460;BME280;41326;45.302;-122.946;2023-10-13T05:42:54;100440.28;;;20.36;54.40
55460;BME280;41326;45.302;-122.946;2023-10-13T05:45:25;100450.05;;;20.37;54.48
55460;BME280;41326;45.302;-122.946;2023-10-13T05:47:55;100448.87;;;20.35;54.65
55460;BME280;41326;45.302;-122.946;2023-10-13T05:50:26;100443.21;;;20.34;54.83
55460;BME280;41326;45.302;-122.946;2023-10-13T05:52:56;100448.15;;;20.31;55.04
55460;BME280;41326;45.302;-122.946;2023-10-13T05:55:28;100446.28;;;20.32;55.09
55460;BME280;41326;45.302;-122.946;2023-10-13T05:57:57;100444.29;;;20.31;55.22
55460;BME280;41326;45.302;-122.946;2023-10-13T06:00:27;100445.26;;;20.30;55.33
55460;BME280;41326;45.302;-122.946;2023-10-13T06:02:57;100441.90;;;20.30;55.39
55460;BME280;41326;45.302;-122.946;2023-10-13T06:05:28;100436.00;;;20.30;55.45
55460;BME280;41326;45.302;-122.946;2023-10-13T06:07:59;100433.05;;;20.29;55.54
55460;BME280;41326;45.302;-122.946;2023-10-13T06:10:29;100429.98;;;20.27;55.68
55460;BME280;41326;45.302;-122.946;2023-10-13T06:12:59;100432.03;;;20.27;55.73
55460;BME280;41326;45.302;-122.946;2023-10-13T06:15:29;100432.53;;;20.27;55.75
55460;BME280;41326;45.302;-122.946;2023-10-13T06:17:59;100431.25;;;20.26;55.81
55460;BME280;41326;45.302;-122.946;2023-10-13T06:20:31;100424.19;;;20.25;55.82
55460;BME280;41326;45.302;-122.946;2023-10-13T06:23:00;100426.92;;;20.24;55.84
55460;BME280;41326;45.302;-122.946;2023-10-13T06:25:31;100426.64;;;20.24;55.81
55460;BME280;41326;45.302;-122.946;2023-10-13T06:28:00;100423.73;;;20.24;55.82
55460;BME280;41326;45.302;-122.946;2023-10-13T06:30:31;100417.87;;;20.21;55.94
55460;BME280;41326;45.302;-122.946;2023-10-13T06:33:01;100418.44;;;20.18;56.08
55460;BME280;41326;45.302;-122.946;2023-10-13T06:35:31;100420.82;;;20.18;56.09
55460;BME280;41326;45.302;-122.946;2023-10-13T06:38:02;100418.52;;;20.17;56.11
55460;BME280;41326;45.302;-122.946;2023-10-13T06:40:33;100415.42;;;20.15;56.21
55460;BME280;41326;45.302;-122.946;2023-10-13T06:43:03;100414.22;;;20.15;56.21
55460;BME280;41326;45.302;-122.946;2023-10-13T06:45:32;100410.32;;;20.16;56.17
55460;BME280;41326;45.302;-122.946;2023-10-13T06:48:02;100411.41;;;20.16;56.18
55460;BME280;41326;45.302;-122.946;2023-10-13T06:50:32;100407.27;;;20.16;56.21
55460;BME280;41326;45.302;-122.946;2023-10-13T06:53:03;100409.86;;;20.15;56.25
55460;BME280;41326;45.302;-122.946;2023-10-13T06:55:37;100406.47;;;20.14;56.28
55460;BME280;41326;45.302;-122.946;2023-10-13T06:58:03;100404.60;;;20.13;56.31
55460;BME280;41326;45.302;-122.946;2023-10-13T07:00:34;100399.41;;;20.13;56.37
55460;BME280;41326;45.302;-122.946;2023-10-13T07:03:05;100401.42;;;20.11;56.44
55460;BME280;41326;45.302;-122.946;2023-10-13T07:05:35;100399.38;;;20.13;56.40
55460;BME280;41326;45.302;-122.946;2023-10-13T07:08:05;100398.98;;;20.14;56.39
55460;BME280;41326;45.302;-122.946;2023-10-13T07:10:35;100397.92;;;20.14;56.42
55460;BME280;41326;45.302;-122.946;2023-10-13T07:13:05;100398.36;;;20.10;56.54
55460;BME280;41326;45.302;-122.946;2023-10-13T07:15:36;100397.90;;;20.11;56.52
55460;BME280;41326;45.302;-122.946;2023-10-13T07:18:06;100400.10;;;20.11;56.52
55460;BME280;41326;45.302;-122.946;2023-10-13T07:20:38;100396.58;;;20.11;56.55
55460;BME280;41326;45.302;-122.946;2023-10-13T07:23:06;100387.16;;;20.09;56.58
55460;BME280;41326;45.302;-122.946;2023-10-13T07:25:37;100384.54;;;20.10;56.58
55460;BME280;41326;45.302;-122.946;2023-10-13T07:28:07;100379.07;;;20.08;56.64
55460;BME280;41326;45.302;-122.946;2023-10-13T07:30:38;100371.92;;;20.07;56.69
55460;BME280;41326;45.302;-122.946;2023-10-13T07:33:08;100369.28;;;20.06;56.75
55460;BME280;41326;45.302;-122.946;2023-10-13T07:35:38;100362.85;;;20.06;56.73
55460;BME280;41326;45.302;-122.946;2023-10-13T07:38:09;100356.72;;;20.05;56.76
55460;BME280;41326;45.302;-122.946;2023-10-13T07:40:39;100352.24;;;20.05;56.77
55460;BME280;41326;45.302;-122.946;2023-10-13T07:43:09;100346.35;;;20.04;56.79
55460;BME280;41326;45.302;-122.946;2023-10-13T07:45:41;100347.19;;;20.05;56.76
55460;BME280;41326;45.302;-122.946;2023-10-13T07:48:10;100344.79;;;20.04;56.76
55460;BME280;41326;45.302;-122.946;2023-10-13T07:50:40;100337.64;;;20.03;56.82
55460;BME280;41326;45.302;-122.946;2023-10-13T07:53:12;100338.46;;;20.01;56.84
55460;BME280;41326;45.302;-122.946;2023-10-13T07:55:41;100334.68;;;20.02;56.78
55460;BME280;41326;45.302;-122.946;2023-10-13T07:58:12;100332.99;;;20.00;56.76
55460;BME280;41326;45.302;-122.946;2023-10-13T08:00:41;100332.41;;;20.00;56.74
55460;BME280;41326;45.302;-122.946;2023-10-13T08:03:12;100334.07;;;19.99;56.69
55460;BME280;41326;45.302;-122.946;2023-10-13T08:05:42;100330.57;;;19.96;56.69
55460;BME280;41326;45.302;-122.946;2023-10-13T08:08:12;100325.92;;;19.97;56.65
55460;BME280;41326;45.302;-122.946;2023-10-13T08:10:42;100328.31;;;19.95;56.62
55460;BME280;41326;45.302;-122.946;2023-10-13T08:13:13;100326.43;;;19.95;56.61
55460;BME280;41326;45.302;-122.946;2023-10-13T08:15:43;100322.84;;;19.94;56.60
55460;BME280;41326;45.302;-122.946;2023-10-13T08:18:14;100320.95;;;19.93;56.60
55460;BME280;41326;45.302;-122.946;2023-10-13T08:20:46;100317.01;;;19.91;56.63
55460;BME280;41326;45.302;-122.946;2023-10-13T08:23:14;100313.36;;;19.88;56.70
55460;BME280;41326;45.302;-122.946;2023-10-13T08:25:44;100310.38;;;19.90;56.67
55460;BME280;41326;45.302;-122.946;2023-10-13T08:28:14;100305.11;;;19.89;56.70
55460;BME280;41326;45.302;-122.946;2023-10-13T08:30:44;100304.81;;;19.87;56.75
55460;BME280;41326;45.302;-122.946;2023-10-13T08:33:14;100306.03;;;19.85;56.81
55460;BME280;41326;45.302;-122.946;2023-10-13T08:35:46;100308.37;;;19.86;56.80
55460;BME280;41326;45.302;-122.946;2023-10-13T08:38:15;100310.28;;;19.84;56.85
55460;BME280;41326;45.302;-122.946;2023-10-13T08:40:49;100312.41;;;19.82;56.91
55460;BME280;41326;45.302;-122.946;2023-10-13T08:43:16;100314.05;;;19.82;56.94
55460;BME280;41326;45.302;-122.946;2023-10-13T08:45:46;100315.48;;;19.82;56.92
55460;BME280;41326;45.302;-122.946;2023-10-13T08:48:17;100319.54;;;19.82;56.90
55460;BME280;41326;45.302;-122.946;2023-10-13T08:50:49;100322.47;;;19.81;56.93
55460;BME280;41326;45.302;-122.946;2023-10-13T08:53:17;100330.43;;;19.82;56.94
55460;BME280;41326;45.302;-122.946;2023-10-13T08:55:46;100329.75;;;19.80;56.95
55460;BME280;41326;45.302;-122.946;2023-10-13T08:58:18;100322.62;;;19.80;56.95
55460;BME280;41326;45.302;-122.946;2023-10-13T09:00:51;100318.61;;;19.77;56.99
55460;BME280;41326;45.302;-122.946;2023-10-13T09:03:18;100317.13;;;19.77;56.99
55460;BME280;41326;45.302;-122.946;2023-10-13T09:05:49;100318.60;;;19.77;56.95
55460;BME280;41326;45.302;-122.946;2023-10-13T09:10:49;100317.11;;;19.75;56.94
55460;BME280;41326;45.302;-122.946;2023-10-13T09:13:19;100322.57;;;19.75;56.93
55460;BME280;41326;45.302;-122.946;2023-10-13T09:15:49;100323.01;;;19.74;56.92
55460;BME280;41326;45.302;-122.946;2023-10-13T09:18:24;100321.34;;;19.74;56.88
55460;BME280;41326;45.302;-122.946;2023-10-13T09:20:50;100317.53;;;19.72;56.91
55460;BME280;41326;45.302;-122.946;2023-10-13T09:23:20;100312.21;;;19.71;56.92
55460;BME280;41326;45.302;-122.946;2023-10-13T09:25:50;100314.13;;;19.70;56.93
55460;BME280;41326;45.302;-122.946;2023-10-13T09:28:21;100312.93;;;19.69;56.91
55460;BME280;41326;45.302;-122.946;2023-10-13T09:30:52;100313.40;;;19.69;56.90
55460;BME280;41326;45.302;-122.946;2023-10-13T09:33:26;100310.05;;;19.67;56.91
55460;BME280;41326;45.302;-122.946;2023-10-13T09:35:51;100311.02;;;19.66;56.94
55460;BME280;41326;45.302;-122.946;2023-10-13T09:38:22;100309.60;;;19.66;56.93
55460;BME280;41326;45.302;-122.946;2023-10-13T09:40:52;100300.16;;;19.65;56.96
55460;BME280;41326;45.302;-122.946;2023-10-13T09:43:23;100299.20;;;19.63;57.01
55460;BME280;41326;45.302;-122.946;2023-10-13T09:45:56;100298.48;;;19.65;56.93
55460;BME280;41326;45.302;-122.946;2023-10-13T09:48:26;100295.23;;;19.64;56.90
55460;BME280;41326;45.302;-122.946;2023-10-13T09:50:53;100292.49;;;19.63;56.92
55460;BME280;41326;45.302;-122.946;2023-10-13T09:53:24;100286.54;;;19.61;56.97
55460;BME280;41326;45.302;-122.946;2023-10-13T09:55:59;100282.53;;;19.62;56.93
55460;BME280;41326;45.302;-122.946;2023-10-13T09:58:25;100278.28;;;19.62;56.92
55460;BME280;41326;45.302;-122.946;2023-10-13T10:00:57;100275.26;;;19.63;56.86
55460;BME280;41326;45.302;-122.946;2023-10-13T10:03:25;100272.83;;;19.63;56.80
55460;BME280;41326;45.302;-122.946;2023-10-13T10:05:59;100269.66;;;19.64;56.76
55460;BME280;41326;45.302;-122.946;2023-10-13T10:08:29;100265.44;;;19.62;56.77
55460;BME280;41326;45.302;-122.946;2023-10-13T10:11:12;100264.59;;;19.60;56.81
55460;BME280;41326;45.302;-122.946;2023-10-13T10:13:34;100261.99;;;19.61;56.79
55460;BME280;41326;45.302;-122.946;2023-10-13T10:15:58;100268.33;;;19.62;56.73
55460;BME280;41326;45.302;-122.946;2023-10-13T10:18:28;100267.27;;;19.61;56.70
55460;BME280;41326;45.302;-122.946;2023-10-13T10:23:29;100259.48;;;19.59;56.74
55460;BME280;41326;45.302;-122.946;2023-10-13T10:25:57;100252.76;;;19.59;56.73
55460;BME280;41326;45.302;-122.946;2023-10-13T10:31:04;100253.39;;;19.59;56.66
55460;BME280;41326;45.302;-122.946;2023-10-13T10:33:32;100248.51;;;19.56;56.72
55460;BME280;41326;45.302;-122.946;2023-10-13T10:36:02;100246.31;;;19.58;56.65
55460;BME280;41326;45.302;-122.946;2023-10-13T10:38:28;100242.96;;;19.55;56.73
55460;BME280;41326;45.302;-122.946;2023-10-13T10:41:01;100241.46;;;19.54;56.75
55460;BME280;41326;45.302;-122.946;2023-10-13T10:43:35;100238.33;;;19.54;56.73
55460;BME280;41326;45.302;-122.946;2023-10-13T10:45:59;100239.63;;;19.53;56.73
55460;BME280;41326;45.302;-122.946;2023-10-13T10:48:31;100241.75;;;19.52;56.73
55460;BME280;41326;45.302;-122.946;2023-10-13T10:51:00;100240.16;;;19.49;56.80
55460;BME280;41326;45.302;-122.946;2023-10-13T10:53:30;100234.30;;;19.50;56.74
55460;BME280;41326;45.302;-122.946;2023-10-13T10:56:06;100228.27;;;19.50;56.73
55460;BME280;41326;45.302;-122.946;2023-10-13T10:58:33;100231.56;;;19.47;56.79
55460;BME280;41326;45.302;-122.946;2023-10-13T11:01:05;100234.85;;;19.47;56.78
55460;BME280;41326;45.302;-122.946;2023-10-13T11:03:32;100236.01;;;19.45;56.71
55460;BME280;41326;45.302;-122.946;2023-10-13T11:06:02;100227.88;;;19.45;56.74
55460;BME280;41326;45.302;-122.946;2023-10-13T11:08:32;100227.18;;;19.43;56.79
55460;BME280;41326;45.302;-122.946;2023-10-13T11:11:02;100219.94;;;19.43;56.76
55460;BME280;41326;45.302;-122.946;2023-10-13T11:16:04;100207.17;;;19.42;56.78
55460;BME280;41326;45.302;-122.946;2023-10-13T11:18:36;100204.79;;;19.43;56.70
55460;BME280;41326;45.302;-122.946;2023-10-13T11:21:03;100207.13;;;19.42;56.71
55460;BME280;41326;45.302;-122.946;2023-10-13T11:23:34;100202.62;;;19.41;56.70
55460;BME280;41326;45.302;-122.946;2023-10-13T11:26:04;100195.31;;;19.43;56.58
55460;BME280;41326;45.302;-122.946;2023-10-13T11:28:34;100195.70;;;19.43;56.53
55460;BME280;41326;45.302;-122.946;2023-10-13T11:31:04;100198.77;;;19.40;56.57
55460;BME280;41326;45.302;-122.946;2023-10-13T11:33:35;100198.87;;;19.39;56.58
55460;BME280;41326;45.302;-122.946;2023-10-13T11:36:05;100200.23;;;19.39;56.54
55460;BME280;41326;45.302;-122.946;2023-10-13T11:38:35;100204.31;;;19.39;56.56
55460;BME280;41326;45.302;-122.946;2023-10-13T11:41:06;100207.46;;;19.35;56.65
55460;BME280;41326;45.302;-122.946;2023-10-13T11:43:36;100204.39;;;19.35;56.65
55460;BME280;41326;45.302;-122.946;2023-10-13T11:46:05;100202.30;;;19.34;56.60
55460;BME280;41326;45.302;-122.946;2023-10-13T11:48:36;100201.70;;;19.33;56.64
55460;BME280;41326;45.302;-122.946;2023-10-13T11:51:07;100196.32;;;19.32;56.65
55460;BME280;41326;45.302;-122.946;2023-10-13T11:53:36;100198.89;;;19.31;56.65
55460;BME280;41326;45.302;-122.946;2023-10-13T11:56:08;100197.55;;;19.31;56.65
55460;BME280;41326;45.302;-122.946;2023-10-13T11:58:37;100197.22;;;19.31;56.67
55460;BME280;41326;45.302;-122.946;2023-10-13T12:01:07;100196.87;;;19.30;56.74
55460;BME280;41326;45.302;-122.946;2023-10-13T12:03:37;100195.71;;;19.28;56.81
55460;BME280;41326;45.302;-122.946;2023-10-13T12:06:08;100195.21;;;19.27;56.80
55460;BME280;41326;45.302;-122.946;2023-10-13T12:08:37;100194.25;;;19.29;56.77
55460;BME280;41326;45.302;-122.946;2023-10-13T12:11:08;100188.61;;;19.28;56.81
55460;BME280;41326;45.302;-122.946;2023-10-13T12:13:39;100183.41;;;19.27;56.84
55460;BME280;41326;45.302;-122.946;2023-10-13T12:16:08;100179.94;;;19.28;56.82
55460;BME280;41326;45.302;-122.946;2023-10-13T12:18:39;100173.24;;;19.26;56.85
55460;BME280;41326;45.302;-122.946;2023-10-13T12:21:12;100179.56;;;19.25;56.90
55460;BME280;41326;45.302;-122.946;2023-10-13T12:23:39;100175.20;;;19.24;56.94
55460;BME280;41326;45.302;-122.946;2023-10-13T12:26:09;100172.84;;;19.23;56.95
55460;BME280;41326;45.302;-122.946;2023-10-13T12:28:39;100168.79;;;19.23;56.95
55460;BME280;41326;45.302;-122.946;2023-10-13T12:31:10;100168.68;;;19.21;56.98
55460;BME280;41326;45.302;-122.946;2023-10-13T12:33:40;100170.65;;;19.20;57.02
55460;BME280;41326;45.302;-122.946;2023-10-13T12:36:10;100181.29;;;19.21;57.01
55460;BME280;41326;45.302;-122.946;2023-10-13T12:38:42;100190.97;;;19.21;57.01
55460;BME280;41326;45.302;-122.946;2023-10-13T12:41:13;100200.09;;;19.18;57.07
55460;BME280;41326;45.302;-122.946;2023-10-13T12:43:41;100208.56;;;19.20;57.03
55460;BME280;41326;45.302;-122.946;2023-10-13T12:46:11;100210.32;;;19.20;57.01